地図

経路データ

SID SEASON NUMBER BASIN SUBBASIN NAME ISO_TIME NATURE LAT LON WMO_WIND WMO_PRES WMO_AGENCY TRACK_TYPE DIST2LAND LANDFALL IFLAG USA_AGENCY USA_ATCF_ID USA_LAT USA_LON USA_RECORD USA_STATUS USA_WIND USA_PRES USA_SSHS USA_R34_NE USA_R34_SE USA_R34_SW USA_R34_NW USA_R50_NE USA_R50_SE USA_R50_SW USA_R50_NW USA_R64_NE USA_R64_SE USA_R64_SW USA_R64_NW USA_POCI USA_ROCI USA_RMW USA_EYE TOKYO_LAT TOKYO_LON TOKYO_GRADE TOKYO_WIND TOKYO_PRES TOKYO_R50_DIR TOKYO_R50_LONG TOKYO_R50_SHORT TOKYO_R30_DIR TOKYO_R30_LONG TOKYO_R30_SHORT TOKYO_LAND CMA_LAT CMA_LON CMA_CAT CMA_WIND CMA_PRES HKO_LAT HKO_LON HKO_CAT HKO_WIND HKO_PRES NEWDELHI_LAT NEWDELHI_LON NEWDELHI_GRADE NEWDELHI_WIND NEWDELHI_PRES NEWDELHI_CI NEWDELHI_DP NEWDELHI_POCI REUNION_LAT REUNION_LON REUNION_TYPE REUNION_WIND REUNION_PRES REUNION_TNUM REUNION_CI REUNION_RMW REUNION_R34_NE REUNION_R34_SE REUNION_R34_SW REUNION_R34_NW REUNION_R50_NE REUNION_R50_SE REUNION_R50_SW REUNION_R50_NW REUNION_R64_NE REUNION_R64_SE REUNION_R64_SW REUNION_R64_NW BOM_LAT BOM_LON BOM_TYPE BOM_WIND BOM_PRES BOM_TNUM BOM_CI BOM_RMW BOM_R34_NE BOM_R34_SE BOM_R34_SW BOM_R34_NW BOM_R50_NE BOM_R50_SE BOM_R50_SW BOM_R50_NW BOM_R64_NE BOM_R64_SE BOM_R64_SW BOM_R64_NW BOM_ROCI BOM_POCI BOM_EYE BOM_POS_METHOD BOM_PRES_METHOD NADI_LAT NADI_LON NADI_CAT NADI_WIND NADI_PRES WELLINGTON_LAT WELLINGTON_LON WELLINGTON_WIND WELLINGTON_PRES DS824_LAT DS824_LON DS824_STAGE DS824_WIND DS824_PRES TD9636_LAT TD9636_LON TD9636_STAGE TD9636_WIND TD9636_PRES TD9635_LAT TD9635_LON TD9635_WIND TD9635_PRES TD9635_ROCI NEUMANN_LAT NEUMANN_LON NEUMANN_CLASS NEUMANN_WIND NEUMANN_PRES MLC_LAT MLC_LON MLC_CLASS MLC_WIND MLC_PRES USA_GUST BOM_GUST BOM_GUST_PER REUNION_GUST REUNION_GUST_PER USA_SEAHGT USA_SEARAD_NE USA_SEARAD_SE USA_SEARAD_SW USA_SEARAD_NW STORM_SPEED STORM_DIR
1889282N09316 1889 30 NA NA NOT_NAMED 1889-10-08 12:00:00 TS 9.00000 -44.0000 main 963 930 _____________O -1 9.00000 -44.0000 TD 30 11 296
1889282N09316 1889 30 NA NA NOT_NAMED 1889-10-08 15:00:00 TS 9.24264 -44.4999 main 930 907 _____________P -1 9.24264 -44.4999 TD 30 11 297
1889282N09316 1889 30 NA NA NOT_NAMED 1889-10-08 18:00:00 TS 9.50000 -45.0000 main 907 888 _____________O -1 9.50000 -45.0000 TD 30 11 299
1889282N09316 1889 30 NA NA NOT_NAMED 1889-10-08 21:00:00 TS 9.78493 -45.5001 main 888 873 _____________P -1 9.78493 -45.5001 TD 32 12 301
1889282N09316 1889 30 NA NA NOT_NAMED 1889-10-09 00:00:00 TS 10.1000 -46.0000 main 874 864 _____________O -1 10.1000 -46.0000 TS 35 12 304
1889282N09316 1889 30 NA NA NOT_NAMED 1889-10-09 03:00:00 TS 10.4499 -46.5000 main 864 862 _____________P -1 10.4499 -46.5000 TS 35 12 305
1889282N09316 1889 30 NA NA NOT_NAMED 1889-10-09 06:00:00 TS 10.8000 -47.0000 main 868 863 _____________O -1 10.8000 -47.0000 TS 35 12 303
1889282N09316 1889 30 NA NA NOT_NAMED 1889-10-09 09:00:00 TS 11.0999 -47.5002 main 867 855 _____________P -1 11.0999 -47.5002 TS 35 12 301
1889282N09316 1889 30 NA NA NOT_NAMED 1889-10-09 12:00:00 TS 11.4000 -48.0000 main 859 853 _____________O -1 11.4000 -48.0000 TS 35 12 304
1889282N09316 1889 30 NA NA NOT_NAMED 1889-10-09 15:00:00 TS 11.7499 -48.5000 main 856 856 _____________P -1 11.7499 -48.5000 TS 37 12 306
1889282N09316 1889 30 NA NA NOT_NAMED 1889-10-09 18:00:00 TS 12.1000 -49.0000 main 868 863 _____________O -1 12.1000 -49.0000 TS 40 12 304
1889282N09316 1889 30 NA NA NOT_NAMED 1889-10-09 21:00:00 TS 12.3999 -49.5002 main 874 869 _____________P -1 12.3999 -49.5002 TS 40 11 302
1889282N09316 1889 30 NA NA NOT_NAMED 1889-10-10 00:00:00 TS 12.7000 -50.0000 main 884 880 _____________O -1 12.7000 -50.0000 TS 40 12 304
1889282N09316 1889 30 NA NA NOT_NAMED 1889-10-10 03:00:00 TS 13.0499 -50.5000 main 892 892 _____________P -1 13.0499 -50.5000 TS 42 12 306
1889282N09316 1889 30 NA NA NOT_NAMED 1889-10-10 06:00:00 TS 13.4000 -51.0000 main 910 906 _____________O -1 13.4000 -51.0000 TS 45 12 303
1889282N09316 1889 30 NA NA NOT_NAMED 1889-10-10 09:00:00 TS 13.6925 -51.5152 main 922 918 _____________P -1 13.6925 -51.5152 TS 45 11 302
1889282N09316 1889 30 NA NA NOT_NAMED 1889-10-10 12:00:00 TS 14.0000 -52.0000 main 938 935 _____________O -1 14.0000 -52.0000 TS 45 11 308
1889282N09316 1889 30 NA NA NOT_NAMED 1889-10-10 15:00:00 TS 14.3924 -52.4225 main 972 970 _____________P -1 14.3924 -52.4225 TS 47 11 316
1889282N09316 1889 30 NA NA NOT_NAMED 1889-10-10 18:00:00 TS 14.8000 -52.8000 main 1001 988 _____________O -1 14.8000 -52.8000 TS 50 10 317
1889282N09316 1889 30 NA NA NOT_NAMED 1889-10-10 21:00:00 TS 15.1499 -53.1503 main 978 974 _____________P -1 15.1499 -53.1503 TS 50 10 316
1889282N09316 1889 30 NA NA NOT_NAMED 1889-10-11 00:00:00 TS 15.5000 -53.5000 main 974 964 _____________O -1 15.5000 -53.5000 TS 50 10 316
1889282N09316 1889 30 NA NA NOT_NAMED 1889-10-11 03:00:00 TS 15.9000 -53.9000 main 964 958 _____________P -1 15.9000 -53.9000 TS 50 11 316
1889282N09316 1889 30 NA NA NOT_NAMED 1889-10-11 06:00:00 TS 16.3000 -54.3000 main 958 948 _____________O -1 16.3000 -54.3000 TS 50 10 314
1889282N09316 1889 30 NA NA NOT_NAMED 1889-10-11 09:00:00 TS 16.6049 -54.6580 main 948 948 _____________P -1 16.6049 -54.6580 TS 50 10 316
1889282N09316 1889 30 NA NA NOT_NAMED 1889-10-11 12:00:00 TS 17.0000 -55.0000 main 957 957 _____________O -1 17.0000 -55.0000 TS 50 13 328
1889282N09316 1889 30 NA NA NOT_NAMED 1889-10-11 15:00:00 TS 17.6550 -55.3574 main 989 989 _____________P -1 17.6550 -55.3574 TS 50 16 335
1889282N09316 1889 30 NA NA NOT_NAMED 1889-10-11 18:00:00 TS 18.4000 -55.7000 main 1033 1013 _____________O -1 18.4000 -55.7000 TS 50 15 336
1889282N09316 1889 30 NA NA NOT_NAMED 1889-10-11 21:00:00 TS 19.0574 -56.0079 main 1013 986 _____________P -1 19.0574 -56.0079 TS 50 14 336
1889282N09316 1889 30 NA NA NOT_NAMED 1889-10-12 00:00:00 TS 19.7000 -56.3000 main 988 965 _____________O -1 19.7000 -56.3000 TS 50 14 337
1889282N09316 1889 30 NA NA NOT_NAMED 1889-10-12 03:00:00 TS 20.3499 -56.6003 main 967 952 _____________P -1 20.3499 -56.6003 TS 50 14 337
1889282N09316 1889 30 NA NA NOT_NAMED 1889-10-12 06:00:00 TS 21.0000 -56.9000 main 955 943 _____________O -1 21.0000 -56.9000 TS 50 14 336
1889282N09316 1889 30 NA NA NOT_NAMED 1889-10-12 09:00:00 TS 21.6500 -57.2225 main 951 940 _____________P -1 21.6500 -57.2225 TS 50 14 337
1889282N09316 1889 30 NA NA NOT_NAMED 1889-10-12 12:00:00 TS 22.3000 -57.5000 main 950 950 _____________O -1 22.3000 -57.5000 TS 50 14 342
1889282N09316 1889 30 NA NA NOT_NAMED 1889-10-12 15:00:00 TS 22.9499 -57.6803 main 963 963 _____________P -1 22.9499 -57.6803 TS 50 13 348
1889282N09316 1889 30 NA NA NOT_NAMED 1889-10-12 18:00:00 TS 23.6000 -57.8000 main 996 996 _____________O -1 23.6000 -57.8000 TS 50 13 351
1889282N09316 1889 30 NA NA NOT_NAMED 1889-10-12 21:00:00 TS 24.2500 -57.9003 main 1027 1027 _____________P -1 24.2500 -57.9003 TS 50 13 352
1889282N09316 1889 30 NA NA NOT_NAMED 1889-10-13 00:00:00 TS 24.9000 -58.0000 main 1069 1069 _____________O -1 24.9000 -58.0000 TS 50 13 350
1889282N09316 1889 30 NA NA NOT_NAMED 1889-10-13 03:00:00 TS 25.5500 -58.1499 main 1115 1108 _____________P -1 25.5500 -58.1499 TS 50 13 348
1889282N09316 1889 30 NA NA NOT_NAMED 1889-10-13 06:00:00 TS 26.2000 -58.3000 main 1150 1150 _____________O -1 26.2000 -58.3000 TS 50 14 350
1889282N09316 1889 30 NA NA NOT_NAMED 1889-10-13 09:00:00 TS 26.8800 -58.4225 main 1202 1202 _____________P -1 26.8800 -58.4225 TS 50 13 352
1889282N09316 1889 30 NA NA NOT_NAMED 1889-10-13 12:00:00 TS 27.5000 -58.5000 main 1249 1249 _____________O -1 27.5000 -58.5000 TS 50 11 356
1889282N09316 1889 30 NA NA NOT_NAMED 1889-10-13 15:00:00 TS 27.9800 -58.5152 main 1294 1294 _____________P -1 27.9800 -58.5152 TS 50 9 0
1889282N09316 1889 30 NA NA NOT_NAMED 1889-10-13 18:00:00 TS 28.4000 -58.5000 main 1330 1330 _____________O -1 28.4000 -58.5000 TS 50 9 2
1889282N09316 1889 30 NA NA NOT_NAMED 1889-10-13 21:00:00 TS 28.8500 -58.5000 main 1377 1368 _____________P -1 28.8500 -58.5000 TS 47 9 0
1889282N09316 1889 30 NA NA NOT_NAMED 1889-10-14 00:00:00 TS 29.3000 -58.5000 main 1414 1414 _____________O -1 29.3000 -58.5000 TS 45 9 0
1889282N09316 1889 30 NA NA NOT_NAMED 1889-10-14 03:00:00 TS 29.7575 -58.5000 main 1462 1462 _____________P -1 29.7575 -58.5000 TS 45 9 0
1889282N09316 1889 30 NA NA NOT_NAMED 1889-10-14 06:00:00 TS 30.2000 -58.5000 main 1500 1500 _____________O -1 30.2000 -58.5000 TS 45 8 0
1889282N09316 1889 30 NA NA NOT_NAMED 1889-10-14 09:00:00 TS 30.6000 -58.5000 main 1539 1514 _____________P -1 30.6000 -58.5000 TS 45 8 1
1889282N09316 1889 30 NA NA NOT_NAMED 1889-10-14 12:00:00 TS 31.0000 -58.5000 main 1514 1473 _____________O -1 31.0000 -58.5000 TS 45 8 0
1889282N09316 1889 30 NA NA NOT_NAMED 1889-10-14 15:00:00 TS 31.4425 -58.5000 main 1473 1421 _____________P -1 31.4425 -58.5000 TS 42 9 0
1889282N09316 1889 30 NA NA NOT_NAMED 1889-10-14 18:00:00 TS 31.9000 -58.5000 main 1421 1380 _____________O -1 31.9000 -58.5000 TS 40 9 1
1889282N09316 1889 30 NA NA NOT_NAMED 1889-10-14 21:00:00 TS 32.3575 -58.5000 main 1370 1329 _____________P -1 32.3575 -58.5000 TS 40 9 0
1889282N09316 1889 30 NA NA NOT_NAMED 1889-10-15 00:00:00 TS 32.8000 -58.5000 main 1329 1289 _____________O -1 32.8000 -58.5000 TS 40 8 0
1889282N09316 1889 30 NA NA NOT_NAMED 1889-10-15 03:00:00 TS 33.2000 -58.5000 main 1289 1248 _____________P -1 33.2000 -58.5000 TS 37 8 1
1889282N09316 1889 30 NA NA NOT_NAMED 1889-10-15 06:00:00 TS 33.6000 -58.5000 main 1248 1209 _____________O -1 33.6000 -58.5000 TS 35 9 0
1889282N09316 1889 30 NA NA NOT_NAMED 1889-10-15 09:00:00 TS 34.0725 -58.5000 main 1199 1159 _____________P -1 34.0725 -58.5000 TS 35 9 0
1889282N09316 1889 30 NA NA NOT_NAMED 1889-10-15 12:00:00 TS 34.5000 -58.5000 main 1159 1130 _____________O -1 34.5000 -58.5000 TS 35 7 2
1889282N09316 1889 30 NA NA NOT_NAMED 1889-10-15 15:00:00 TS 34.7800 -58.5000 main 1130 1110 _____________P -1 34.7800 -58.5000 TS 35 5 2
1889282N09316 1889 30 NA NA NOT_NAMED 1889-10-15 18:00:00 TS 35.0000 -58.5000 main 1110 1091 _____________O -1 35.0000 -58.5000 TS 35 5 0
1889282N09316 1889 30 NA NA NOT_NAMED 1889-10-15 21:00:00 TS 35.2500 -58.5074 main 1081 1062 _____________P -1 35.2500 -58.5074 TS 35 5 2
1889282N09316 1889 30 NA NA NOT_NAMED 1889-10-16 00:00:00 TS 35.5000 -58.5000 main 1062 1043 _____________O -1 35.5000 -58.5000 TS 35 5 5
1889282N09316 1889 30 NA NA NOT_NAMED 1889-10-16 03:00:00 TS 35.7500 -58.4575 main 1034 1020 _____________P -1 35.7500 -58.4575 TS 37 5 9
1889282N09316 1889 30 NA NA NOT_NAMED 1889-10-16 06:00:00 ET 36.0000 -58.4000 main 1020 992 _____________O -1 36.0000 -58.4000 EX 40 5 8
1889282N09316 1889 30 NA NA NOT_NAMED 1889-10-16 09:00:00 ET 36.2725 -58.3575 main 992 979 _____________P -1 36.2725 -58.3575 EX 40 5 9
1889282N09316 1889 30 NA NA NOT_NAMED 1889-10-16 12:00:00 ET 36.5000 -58.3000 main 979 970 _____________O -1 36.5000 -58.3000 EX 40 4 20
1889282N09316 1889 30 NA NA NOT_NAMED 1889-10-16 15:00:00 ET 36.6300 -58.2000 main 975 966 _____________P -1 36.6300 -58.2000 EX 42 3 39
1889282N09316 1889 30 NA NA NOT_NAMED 1889-10-16 18:00:00 ET 36.7000 -58.1000 main 971 962 _____________O -1 36.7000 -58.1000 EX 45 2 39
1889282N09316 1889 30 NA NA NOT_NAMED 1889-10-16 21:00:00 ET 36.7574 -58.0724 main 962 962 _____________P -1 36.7574 -58.0724 EX 45 1 37
1889282N09316 1889 30 NA NA NOT_NAMED 1889-10-17 00:00:00 ET 36.8000 -58.0000 main 966 966 _____________O -1 36.8000 -58.0000 EX 45 3 68
1889282N09316 1889 30 NA NA NOT_NAMED 1889-10-17 03:00:00 ET 36.8501 -57.7800 main 962 962 _____________P -1 36.8501 -57.7800 EX 47 4 76
1889282N09316 1889 30 NA NA NOT_NAMED 1889-10-17 06:00:00 ET 36.9000 -57.5000 main 970 970 _____________O -1 36.9000 -57.5000 EX 50 4 80
1889282N09316 1889 30 NA NA NOT_NAMED 1889-10-17 09:00:00 ET 36.9194 -57.3092 main 976 968 _____________P -1 36.9194 -57.3092 EX 50 4 76
1889282N09316 1889 30 NA NA NOT_NAMED 1889-10-17 12:00:00 ET 37.0000 -57.0000 main 974 965 _____________O -1 37.0000 -57.0000 EX 50 8 67
1889282N09316 1889 30 NA NA NOT_NAMED 1889-10-17 15:00:00 ET 37.2205 -56.4031 main 972 961 _____________P -1 37.2205 -56.4031 EX 50 11 64
1889282N09316 1889 30 NA NA NOT_NAMED 1889-10-17 18:00:00 ET 37.5000 -55.7000 main 966 960 _____________O -1 37.5000 -55.7000 EX 50 12 63
1889282N09316 1889 30 NA NA NOT_NAMED 1889-10-17 21:00:00 ET 37.7495 -55.0994 main 971 959 _____________P -1 37.7495 -55.0994 EX 50 11 62
1889282N09316 1889 30 NA NA NOT_NAMED 1889-10-18 00:00:00 ET 38.0000 -54.5000 main 959 934 _____________O -1 38.0000 -54.5000 EX 50 11 63
1889282N09316 1889 30 NA NA NOT_NAMED 1889-10-18 03:00:00 ET 38.2499 -53.8497 main 934 900 _____________P -1 38.2499 -53.8497 EX 50 11 64
1889282N09316 1889 30 NA NA NOT_NAMED 1889-10-18 06:00:00 ET 38.5000 -53.2000 main 900 879 _____________O -1 38.5000 -53.2000 EX 50 11 64
1889282N09316 1889 30 NA NA NOT_NAMED 1889-10-18 09:00:00 ET 38.7192 -52.6134 main 879 849 _____________P -1 38.7192 -52.6134 EX 50 11 62
1889282N09316 1889 30 NA NA NOT_NAMED 1889-10-18 12:00:00 ET 39.0000 -52.0000 main 850 813 _____________O -1 39.0000 -52.0000 EX 50 13 56
1889282N09316 1889 30 NA NA NOT_NAMED 1889-10-18 15:00:00 ET 39.4199 -51.2728 main 815 776 _____________P -1 39.4199 -51.2728 EX 50 15 52
1889282N09316 1889 30 NA NA NOT_NAMED 1889-10-18 18:00:00 ET 39.9000 -50.5000 main 776 748 _____________O -1 39.9000 -50.5000 EX 50 15 52
1889282N09316 1889 30 NA NA NOT_NAMED 1889-10-18 21:00:00 ET 40.3495 -49.7490 main 754 727 _____________P -1 40.3495 -49.7490 EX 50 15 52
1889282N09316 1889 30 NA NA NOT_NAMED 1889-10-19 00:00:00 ET 40.8000 -49.0000 main 727 711 _____________O -1 40.8000 -49.0000 EX 50 14 52
1889282N09316 1889 30 NA NA NOT_NAMED 1889-10-19 03:00:00 ET 41.2495 -48.2490 main 720 706 _____________P -1 41.2495 -48.2490 EX 52 14 51
1889282N09316 1889 30 NA NA NOT_NAMED 1889-10-19 06:00:00 ET 41.7000 -47.5000 main 708 704 _____________O -1 41.7000 -47.5000 EX 55 14 51
1889282N09316 1889 30 NA NA NOT_NAMED 1889-10-19 09:00:00 ET 42.1495 -46.7489 main 717 709 _____________P -1 42.1495 -46.7489 EX 57 14 51
1889282N09316 1889 30 NA NA NOT_NAMED 1889-10-19 12:00:00 ET 42.6000 -46.0000 main 720 719 _____________O -1 42.6000 -46.0000 EX 60 14 51
1889282N09316 1889 30 NA NA NOT_NAMED 1889-10-19 15:00:00 ET 43.0415 -45.2706 main 736 736 _____________P -1 43.0415 -45.2706 EX 60 14 51
1889282N09316 1889 30 NA NA NOT_NAMED 1889-10-19 18:00:00 ET 43.5000 -44.5000 main 757 757 _____________O -1 43.5000 -44.5000 EX 60 15 52
1889282N09316 1889 30 NA NA NOT_NAMED 1889-10-19 21:00:00 ET 43.9925 -43.6145 main 793 793 _____________P -1 43.9925 -43.6145 EX 60 16 52
1889282N09316 1889 30 NA NA NOT_NAMED 1889-10-20 00:00:00 ET 44.5000 -42.7000 main 830 830 _____________O -1 44.5000 -42.7000 EX 60 16 51
1889282N09316 1889 30 NA NA NOT_NAMED 1889-10-20 03:00:00 ET 44.9990 -41.8481 main 871 867 _____________P -1 44.9990 -41.8481 EX 60 16 50
1889282N09316 1889 30 NA NA NOT_NAMED 1889-10-20 06:00:00 ET 45.5000 -41.0000 main 910 910 _____________O -1 45.5000 -41.0000 EX 60 16 51
1889282N09316 1889 30 NA NA NOT_NAMED 1889-10-20 09:00:00 ET 45.9996 -40.0988 main 961 961 _____________P -1 45.9996 -40.0988 EX 60 16 51
1889282N09316 1889 30 NA NA NOT_NAMED 1889-10-20 12:00:00 ET 46.5000 -39.2000 main 1016 1016 _____________O -1 46.5000 -39.2000 EX 60 16 50
1889282N09316 1889 30 NA NA NOT_NAMED 1889-10-20 15:00:00 ET 47.0010 -38.3404 main 1074 1074 _____________P -1 47.0010 -38.3404 EX 60 15 49
1889282N09316 1889 30 NA NA NOT_NAMED 1889-10-20 18:00:00 ET 47.5000 -37.5000 main 1127 _____________O -1 47.5000 -37.5000 EX 60 15 49

IBTrACS Databaseについて

本データベースは、米国NOAAが公開する1842年以降の世界の熱帯低気圧のベストトラックデータアーカイブInternational Best Track Archive for Climate Stewardship (IBTrACS)を、ウェブで閲覧しやすい形式に変換したものです。

最終更新日:2021-12-03